createdAt,value
2022-09-23T00:01:22.433Z,98347.00
2022-09-23T00:03:59.749Z,98338.00
2022-09-23T00:06:34.712Z,98344.00
2022-09-23T00:09:09.911Z,98339.00
2022-09-23T00:11:44.889Z,98334.00
2022-09-23T00:14:21.668Z,98345.00
2022-09-23T00:16:56.751Z,98339.00
2022-09-23T00:19:31.758Z,98341.00
2022-09-23T00:22:07.902Z,98340.00
2022-09-23T00:24:42.827Z,98345.00
2022-09-23T00:27:21.005Z,98341.00
2022-09-23T00:29:56.007Z,98336.00
2022-09-23T00:32:30.878Z,98342.00
2022-09-23T00:35:06.826Z,98337.00
2022-09-23T00:37:41.731Z,98342.00
2022-09-23T00:40:16.870Z,98345.00
2022-09-23T00:42:52.170Z,98339.00
2022-09-23T00:45:27.256Z,98336.00
2022-09-23T00:48:03.716Z,98330.00
2022-09-23T00:50:42.813Z,98342.00
2022-09-23T00:53:24.305Z,98333.00
2022-09-23T00:56:07.052Z,98322.00
2022-09-23T00:58:44.899Z,98329.00
2022-09-23T01:01:20.992Z,98325.00
2022-09-23T01:03:57.631Z,98321.00
2022-09-23T01:06:32.917Z,98315.00
2022-09-23T01:09:09.826Z,98327.00
2022-09-23T01:12:18.346Z,98321.00
2022-09-23T01:15:09.232Z,98322.00
2022-09-23T01:18:14.681Z,98320.00
2022-09-23T01:21:16.618Z,98320.00
2022-09-23T01:24:43.694Z,98312.00
2022-09-23T01:27:38.092Z,98321.00
2022-09-23T01:30:35.083Z,98310.00
2022-09-23T01:33:14.420Z,98307.00
2022-09-23T01:36:10.078Z,98303.00
2022-09-23T01:39:10.673Z,98306.00
2022-09-23T01:42:01.630Z,98298.00
2022-09-23T01:44:48.799Z,98305.00
2022-09-23T01:47:34.263Z,98297.00
2022-09-23T01:50:37.101Z,98292.00
2022-09-23T01:53:44.731Z,98301.00
2022-09-23T01:56:28.556Z,98301.00
2022-09-23T01:59:15.398Z,98302.00
2022-09-23T02:02:01.727Z,98298.00
2022-09-23T02:04:50.448Z,98297.00
2022-09-23T02:07:35.500Z,98288.00
2022-09-23T02:10:23.007Z,98303.00
2022-09-23T02:13:05.430Z,98278.00
2022-09-23T02:15:49.058Z,98293.00
2022-09-23T02:18:32.987Z,98280.00
2022-09-23T02:21:09.600Z,98281.00
2022-09-23T02:23:57.613Z,98285.00
2022-09-23T02:26:41.240Z,98284.00
2022-09-23T02:29:41.677Z,98286.00
2022-09-23T02:32:32.777Z,98288.00
2022-09-23T02:35:19.775Z,98286.00
2022-09-23T02:38:26.236Z,98283.00
2022-09-23T02:41:15.041Z,98275.00
2022-09-23T02:44:14.718Z,98284.00
2022-09-23T02:46:51.996Z,98280.00
2022-09-23T02:49:29.729Z,98284.00
2022-09-23T02:52:07.560Z,98280.00
2022-09-23T02:54:42.514Z,98268.00
2022-09-23T02:57:17.490Z,98280.00
2022-09-23T02:59:52.681Z,98269.00
2022-09-23T03:02:50.856Z,98261.00
2022-09-23T03:05:32.404Z,98266.00
2022-09-23T03:08:32.430Z,98256.00
2022-09-23T03:11:13.473Z,98261.00
2022-09-23T03:14:19.809Z,98259.00
2022-09-23T03:17:14.478Z,98255.00
2022-09-23T03:19:58.682Z,98263.00
2022-09-23T03:22:44.741Z,98265.00
2022-09-23T03:25:24.077Z,98265.00
2022-09-23T03:28:01.133Z,98261.00
2022-09-23T03:30:36.733Z,98266.00
2022-09-23T03:33:16.617Z,98265.00
2022-09-23T03:36:18.189Z,98271.00
2022-09-23T03:39:04.441Z,98259.00
2022-09-23T03:41:50.739Z,98257.00
2022-09-23T03:44:29.144Z,98252.00
2022-09-23T03:47:04.418Z,98245.00
2022-09-23T03:49:41.056Z,98246.00
2022-09-23T03:52:18.480Z,98240.00
2022-09-23T03:54:53.817Z,98248.00
2022-09-23T03:57:28.702Z,98236.00
2022-09-23T04:00:06.918Z,98235.00
2022-09-23T04:02:46.399Z,98238.00
2022-09-23T04:05:21.303Z,98232.00
2022-09-23T04:07:56.760Z,98229.00
2022-09-23T04:10:31.696Z,98229.00
2022-09-23T04:13:06.598Z,98221.00
2022-09-23T04:15:41.714Z,98222.00
2022-09-23T04:18:16.687Z,98214.00
2022-09-23T04:20:51.651Z,98216.00
2022-09-23T04:23:27.617Z,98219.00
2022-09-23T04:26:05.218Z,98217.00
2022-09-23T04:28:40.414Z,98212.00
2022-09-23T04:31:15.419Z,98211.00
2022-09-23T04:33:53.058Z,98211.00
2022-09-23T04:36:32.950Z,98208.00
2022-09-23T04:39:08.225Z,98212.00
2022-09-23T04:41:44.685Z,98203.00
2022-09-23T04:44:21.237Z,98221.00
2022-09-23T04:46:56.252Z,98227.00
2022-09-23T04:49:33.915Z,98223.00
2022-09-23T04:52:08.899Z,98215.00
2022-09-23T04:54:43.893Z,98224.00
2022-09-23T04:57:18.832Z,98224.00
2022-09-23T04:59:56.896Z,98222.00
2022-09-23T05:02:32.129Z,98228.00
2022-09-23T05:05:07.554Z,98226.00
2022-09-23T05:07:43.066Z,98224.00
2022-09-23T05:10:18.320Z,98228.00
2022-09-23T05:12:57.009Z,98224.00
2022-09-23T05:15:32.324Z,98237.00
2022-09-23T05:18:07.291Z,98237.00
2022-09-23T05:20:42.174Z,98237.00
2022-09-23T05:23:17.187Z,98242.00
2022-09-23T05:26:04.655Z,98240.00
2022-09-23T05:28:40.254Z,98235.00
2022-09-23T05:31:20.571Z,98237.00
2022-09-23T05:34:02.094Z,98238.00
2022-09-23T05:36:38.984Z,98237.00
2022-09-23T05:39:14.283Z,98239.00
2022-09-23T05:41:49.241Z,98239.00
2022-09-23T05:44:24.265Z,98234.00
2022-09-23T05:46:59.422Z,98232.00
2022-09-23T05:49:58.073Z,98237.00
2022-09-23T05:52:31.476Z,98235.00
2022-09-23T05:55:07.416Z,98238.00
2022-09-23T05:57:42.250Z,98235.00
2022-09-23T06:00:17.513Z,98241.00
2022-09-23T06:02:52.487Z,98241.00
2022-09-23T06:05:27.489Z,98238.00
2022-09-23T06:08:02.423Z,98240.00
2022-09-23T06:10:39.284Z,98236.00
2022-09-23T06:13:15.958Z,98239.00
2022-09-23T06:15:52.172Z,98233.00
2022-09-23T06:18:27.178Z,98227.00
2022-09-23T06:21:03.816Z,98232.00
2022-09-23T06:23:41.782Z,98222.00
2022-09-23T06:26:17.059Z,98227.00
2022-09-23T06:28:52.071Z,98225.00
2022-09-23T06:31:27.439Z,98216.00
2022-09-23T06:34:10.560Z,98226.00
2022-09-23T06:36:47.700Z,98224.00
2022-09-23T06:39:22.586Z,98216.00
2022-09-23T06:41:57.530Z,98221.00
2022-09-23T06:44:35.325Z,98215.00
2022-09-23T06:47:10.291Z,98227.00
2022-09-23T06:49:45.179Z,98236.00
2022-09-23T06:52:21.095Z,98221.00
2022-09-23T06:54:56.821Z,98223.00
2022-09-23T06:57:35.124Z,98228.00
2022-09-23T07:00:11.958Z,98231.00
2022-09-23T07:02:47.266Z,98231.00
2022-09-23T07:05:22.572Z,98228.00
2022-09-23T07:07:57.734Z,98233.00
2022-09-23T07:10:32.932Z,98230.00
2022-09-23T07:13:07.887Z,98230.00
2022-09-23T07:15:42.950Z,98232.00
2022-09-23T07:18:19.759Z,98230.00
2022-09-23T07:20:58.837Z,98226.00
2022-09-23T07:23:34.265Z,98230.00
2022-09-23T07:26:09.258Z,98224.00
2022-09-23T07:28:44.332Z,98228.00
2022-09-23T07:31:33.743Z,98227.00
2022-09-23T07:34:13.096Z,98225.00
2022-09-23T07:36:48.108Z,98218.00
2022-09-23T07:39:23.104Z,98233.00
2022-09-23T07:41:58.072Z,98236.00
2022-09-23T07:44:33.851Z,98236.00
2022-09-23T07:47:08.909Z,98226.00
2022-09-23T07:49:43.792Z,98220.00
2022-09-23T07:52:19.587Z,98226.00
2022-09-23T07:54:54.462Z,98219.00
2022-09-23T07:57:29.373Z,98220.00
2022-09-23T08:00:05.265Z,98225.00
2022-09-23T08:02:49.570Z,98216.00
2022-09-23T08:05:27.629Z,98225.00
2022-09-23T08:08:02.685Z,98225.00
2022-09-23T08:10:37.576Z,98222.00
2022-09-23T08:13:12.481Z,98232.00
2022-09-23T08:15:52.033Z,98230.00
2022-09-23T08:18:29.861Z,98233.00
2022-09-23T08:21:04.991Z,98236.00
2022-09-23T08:23:39.953Z,98226.00
2022-09-23T08:26:20.912Z,98231.00
2022-09-23T08:28:58.044Z,98230.00
2022-09-23T08:31:33.054Z,98230.00
2022-09-23T08:34:08.634Z,98231.00
2022-09-23T08:36:43.846Z,98235.00
2022-09-23T08:39:20.874Z,98230.00
2022-09-23T08:42:12.550Z,98226.00
2022-09-23T08:44:53.333Z,98221.00
2022-09-23T08:47:38.115Z,98227.00
2022-09-23T08:50:42.416Z,98226.00
2022-09-23T08:53:31.102Z,98227.00
2022-09-23T08:56:13.854Z,98232.00
2022-09-23T08:59:28.810Z,98223.00
2022-09-23T09:02:19.794Z,98218.00
2022-09-23T09:05:01.074Z,98226.00
2022-09-23T09:07:40.471Z,98220.00
2022-09-23T09:10:25.651Z,98228.00
2022-09-23T09:13:10.873Z,98231.00
2022-09-23T09:16:41.784Z,98217.00
2022-09-23T09:19:42.856Z,98219.00
2022-09-23T09:22:52.697Z,98202.00
2022-09-23T09:25:57.518Z,98208.00
2022-09-23T09:29:06.515Z,98216.00
2022-09-23T09:31:51.920Z,98209.00
2022-09-23T09:34:28.892Z,98210.00
2022-09-23T09:37:25.567Z,98203.00
2022-09-23T09:40:00.868Z,98202.00
2022-09-23T09:42:42.291Z,98200.00
2022-09-23T09:45:24.225Z,98201.00
2022-09-23T09:48:17.615Z,98193.00
2022-09-23T09:50:55.966Z,98185.00
2022-09-23T09:53:35.720Z,98184.00
2022-09-23T09:56:15.695Z,98179.00
2022-09-23T09:59:11.400Z,98177.00
2022-09-23T10:01:46.856Z,98173.00
2022-09-23T10:04:24.925Z,98173.00
2022-09-23T10:07:15.895Z,98171.00
2022-09-23T10:09:51.828Z,98176.00
2022-09-23T10:12:27.181Z,98172.00
2022-09-23T10:15:02.109Z,98171.00
2022-09-23T10:17:39.351Z,98166.00
2022-09-23T10:20:15.357Z,98170.00
2022-09-23T10:22:50.399Z,98165.00
2022-09-23T10:25:26.660Z,98167.00
2022-09-23T10:28:52.715Z,98162.00
2022-09-23T10:31:31.599Z,98167.00
2022-09-23T10:34:28.419Z,98160.00
2022-09-23T10:37:15.779Z,98154.00
2022-09-23T10:40:09.345Z,98157.00
2022-09-23T10:44:06.731Z,98152.00
2022-09-23T10:47:06.984Z,98147.00
2022-09-23T10:50:14.242Z,98143.00
2022-09-23T10:53:42.687Z,98137.00
2022-09-23T10:56:20.052Z,98138.00
2022-09-23T10:59:30.223Z,98136.00
2022-09-23T11:02:44.142Z,98139.00
2022-09-23T11:05:41.322Z,98139.00
2022-09-23T11:08:58.692Z,98135.00
2022-09-23T11:12:09.509Z,98129.00
2022-09-23T11:15:24.738Z,98124.00
2022-09-23T11:18:45.832Z,98119.00
2022-09-23T11:22:08.314Z,98113.00
2022-09-23T11:25:03.241Z,98122.00
2022-09-23T11:28:21.810Z,98113.00
2022-09-23T11:31:11.639Z,98103.00
2022-09-23T11:33:58.116Z,98103.00
2022-09-23T11:36:40.933Z,98094.00
2022-09-23T11:39:32.609Z,98099.00
2022-09-23T11:42:20.188Z,98089.00
2022-09-23T11:45:05.944Z,98090.00
2022-09-23T11:48:13.744Z,98095.00
2022-09-23T11:50:55.317Z,98092.00
2022-09-23T11:53:50.727Z,98085.00
2022-09-23T11:56:38.802Z,98085.00
2022-09-23T11:59:40.912Z,98082.00
2022-09-23T12:02:30.254Z,98079.00
2022-09-23T12:05:20.572Z,98088.00
2022-09-23T12:08:02.825Z,98084.00
2022-09-23T12:11:14.140Z,98084.00
2022-09-23T12:13:57.904Z,98083.00
2022-09-23T12:17:07.181Z,98088.00
2022-09-23T12:20:31.252Z,98083.00
2022-09-23T12:23:49.576Z,98078.00
2022-09-23T12:26:25.777Z,98081.00
2022-09-23T12:29:05.152Z,98074.00
2022-09-23T12:31:43.031Z,98078.00
2022-09-23T12:34:30.003Z,98077.00
2022-09-23T12:37:05.607Z,98074.00
2022-09-23T12:39:40.621Z,98072.00
2022-09-23T12:42:19.646Z,98068.00
2022-09-23T12:45:34.988Z,98066.00
2022-09-23T12:48:43.804Z,98062.00
2022-09-23T12:51:21.171Z,98060.00
2022-09-23T12:54:24.765Z,98059.00
2022-09-23T12:57:01.336Z,98048.00
2022-09-23T12:59:51.543Z,98051.00
2022-09-23T13:02:32.166Z,98053.00
2022-09-23T13:05:42.406Z,98037.00
2022-09-23T13:08:22.615Z,98047.00
2022-09-23T13:11:03.758Z,98042.00
2022-09-23T13:13:45.504Z,98034.00
2022-09-23T13:16:26.812Z,98032.00
2022-09-23T13:19:05.468Z,98026.00
2022-09-23T13:21:43.045Z,98017.00
2022-09-23T13:24:31.256Z,98018.00
2022-09-23T13:27:20.945Z,98018.00
2022-09-23T13:30:14.176Z,98016.00
2022-09-23T13:33:03.557Z,98014.00
2022-09-23T13:35:43.420Z,98018.00
2022-09-23T13:38:28.082Z,98013.00
2022-09-23T13:41:09.738Z,98022.00
2022-09-23T13:43:52.433Z,98012.00
2022-09-23T13:46:46.602Z,98015.00
2022-09-23T13:49:28.992Z,98018.00
2022-09-23T13:52:04.451Z,98012.00
2022-09-23T13:54:51.675Z,98007.00
2022-09-23T13:57:36.873Z,98010.00
2022-09-23T14:00:24.600Z,98003.00
2022-09-23T14:02:59.574Z,97997.00
2022-09-23T14:05:36.306Z,97998.00
2022-09-23T14:08:12.659Z,97986.00
2022-09-23T14:10:48.132Z,97998.00
2022-09-23T14:13:33.392Z,97996.00
2022-09-23T14:16:14.952Z,98000.00
2022-09-23T14:18:56.183Z,97993.00
2022-09-23T14:21:39.825Z,97996.00
2022-09-23T14:24:30.144Z,97999.00
2022-09-23T14:27:07.897Z,97987.00
2022-09-23T14:29:46.888Z,97986.00
2022-09-23T14:32:26.001Z,97979.00
2022-09-23T14:35:00.907Z,97985.00
2022-09-23T14:37:56.987Z,97978.00
2022-09-23T14:40:41.208Z,97983.00
2022-09-23T14:43:23.141Z,97981.00
2022-09-23T14:45:59.081Z,97977.00
2022-09-23T14:48:35.795Z,97970.00
2022-09-23T14:51:16.054Z,97973.00
2022-09-23T14:53:51.952Z,97960.00
2022-09-23T14:56:26.882Z,97961.00
2022-09-23T14:59:01.899Z,97962.00
2022-09-23T15:01:39.129Z,97957.00
2022-09-23T15:04:22.944Z,97953.00
2022-09-23T15:07:23.795Z,97945.00
2022-09-23T15:09:58.796Z,97953.00
2022-09-23T15:12:33.740Z,97952.00
2022-09-23T15:15:13.415Z,97956.00
2022-09-23T15:17:48.360Z,97953.00
2022-09-23T15:20:26.619Z,97950.00
2022-09-23T15:23:01.747Z,97952.00
2022-09-23T15:25:40.936Z,97959.00
2022-09-23T15:28:19.051Z,97951.00
2022-09-23T15:30:55.180Z,97959.00
2022-09-23T15:33:30.186Z,97957.00
2022-09-23T15:36:05.496Z,97959.00
2022-09-23T15:38:44.781Z,97952.00
2022-09-23T15:41:19.984Z,97953.00
2022-09-23T15:43:56.443Z,97957.00
2022-09-23T15:46:33.630Z,97959.00
2022-09-23T15:49:34.610Z,97960.00
2022-09-23T15:52:12.187Z,97965.00
2022-09-23T15:54:47.144Z,97959.00
2022-09-23T15:57:22.143Z,97964.00
2022-09-23T15:59:58.433Z,97957.00
2022-09-23T16:02:33.581Z,97967.00
2022-09-23T16:05:27.351Z,97964.00
2022-09-23T16:08:08.899Z,97952.00
2022-09-23T16:10:44.325Z,97950.00
2022-09-23T16:13:19.555Z,97949.00
2022-09-23T16:15:56.297Z,97950.00
2022-09-23T16:18:31.260Z,97954.00
2022-09-23T16:21:07.653Z,97952.00
2022-09-23T16:23:47.457Z,97948.00
2022-09-23T16:26:43.145Z,97943.00
2022-09-23T16:29:18.020Z,97939.00
2022-09-23T16:31:54.145Z,97950.00
2022-09-23T16:34:29.565Z,97953.00
2022-09-23T16:37:04.777Z,97952.00
2022-09-23T16:39:39.696Z,97953.00
2022-09-23T16:42:14.617Z,97943.00
2022-09-23T16:44:49.782Z,97940.00
2022-09-23T16:47:24.720Z,97947.00
2022-09-23T16:49:59.643Z,97942.00
2022-09-23T16:52:34.572Z,97938.00
2022-09-23T16:55:11.950Z,97950.00
2022-09-23T16:57:46.881Z,97946.00
2022-09-23T17:00:41.392Z,97954.00
2022-09-23T17:03:49.008Z,97943.00
2022-09-23T17:06:27.389Z,97936.00
2022-09-23T17:09:02.677Z,97943.00
2022-09-23T17:11:38.144Z,97952.00
2022-09-23T17:14:13.805Z,97955.00
2022-09-23T17:16:48.823Z,97959.00
2022-09-23T17:19:23.767Z,97952.00
2022-09-23T17:21:58.732Z,97956.00
2022-09-23T17:24:33.644Z,97955.00
2022-09-23T17:27:08.613Z,97951.00
2022-09-23T17:29:44.480Z,97948.00
2022-09-23T17:32:19.345Z,97948.00
2022-09-23T17:34:54.294Z,97952.00
2022-09-23T17:37:29.234Z,97953.00
2022-09-23T17:40:05.061Z,97950.00
2022-09-23T17:42:41.346Z,97957.00
2022-09-23T17:45:16.301Z,97943.00
2022-09-23T17:47:54.762Z,97946.00
2022-09-23T17:50:31.215Z,97934.00
2022-09-23T17:53:06.101Z,97942.00
2022-09-23T17:55:41.199Z,97951.00
2022-09-23T17:58:17.106Z,97957.00
2022-09-23T18:00:52.420Z,97955.00
2022-09-23T18:03:29.998Z,97953.00
2022-09-23T18:06:10.867Z,97946.00
2022-09-23T18:08:48.259Z,97941.00
2022-09-23T18:11:27.293Z,97939.00
2022-09-23T18:14:11.481Z,97941.00
2022-09-23T18:16:53.006Z,97937.00
2022-09-23T18:19:27.904Z,97928.00
2022-09-23T18:22:02.970Z,97945.00
2022-09-23T18:24:41.047Z,97938.00
2022-09-23T18:27:17.073Z,97930.00
2022-09-23T18:29:52.003Z,97939.00
2022-09-23T18:32:26.935Z,97940.00
2022-09-23T18:35:01.901Z,97936.00
2022-09-23T18:37:36.827Z,97932.00
2022-09-23T18:40:14.629Z,97936.00
2022-09-23T18:42:50.294Z,97930.00
2022-09-23T18:45:25.257Z,97931.00
2022-09-23T18:48:18.504Z,97932.00
2022-09-23T18:50:54.138Z,97935.00
2022-09-23T18:53:29.016Z,97931.00
2022-09-23T18:56:13.130Z,97929.00
2022-09-23T18:58:50.152Z,97927.00
2022-09-23T19:01:25.838Z,97930.00
2022-09-23T19:04:02.223Z,97916.00
2022-09-23T19:06:37.407Z,97919.00
2022-09-23T19:09:13.941Z,97908.00
2022-09-23T19:11:52.806Z,97920.00
2022-09-23T19:14:27.843Z,97922.00
2022-09-23T19:17:05.123Z,97923.00
2022-09-23T19:19:40.913Z,97923.00
2022-09-23T19:22:15.965Z,97924.00
2022-09-23T19:24:50.872Z,97933.00
2022-09-23T19:27:25.815Z,97931.00
2022-09-23T19:30:00.714Z,97931.00
2022-09-23T19:32:35.693Z,97924.00
2022-09-23T19:35:12.378Z,97937.00
2022-09-23T19:37:49.241Z,97924.00
2022-09-23T19:40:24.222Z,97928.00
2022-09-23T19:42:59.206Z,97929.00
2022-09-23T19:45:34.296Z,97938.00
2022-09-23T19:48:09.702Z,97932.00
2022-09-23T19:50:47.368Z,97930.00
2022-09-23T19:53:27.890Z,97925.00
2022-09-23T19:56:07.047Z,97912.00
2022-09-23T19:58:48.165Z,97912.00
2022-09-23T20:01:24.700Z,97914.00
2022-09-23T20:04:00.452Z,97908.00
2022-09-23T20:06:38.760Z,97894.00
2022-09-23T20:09:13.949Z,97892.00
2022-09-23T20:11:48.927Z,97892.00
2022-09-23T20:14:26.990Z,97895.00
2022-09-23T20:17:02.393Z,97892.00
2022-09-23T20:19:37.414Z,97899.00
2022-09-23T20:22:33.360Z,97900.00
2022-09-23T20:25:13.483Z,97895.00
2022-09-23T20:27:52.520Z,97893.00
2022-09-23T20:30:28.556Z,97896.00
2022-09-23T20:33:03.434Z,97892.00
2022-09-23T20:35:39.029Z,97896.00
2022-09-23T20:38:13.911Z,97886.00
2022-09-23T20:40:56.796Z,97889.00
2022-09-23T20:43:34.356Z,97892.00
2022-09-23T20:46:09.512Z,97892.00
2022-09-23T20:48:46.727Z,97889.00
2022-09-23T20:51:21.671Z,97890.00
2022-09-23T20:53:56.621Z,97895.00
2022-09-23T20:56:31.781Z,97879.00
2022-09-23T20:59:10.596Z,97881.00
2022-09-23T21:01:45.838Z,97876.00
2022-09-23T21:04:22.407Z,97883.00
2022-09-23T21:06:58.199Z,97872.00
2022-09-23T21:09:33.373Z,97884.00
2022-09-23T21:12:08.285Z,97881.00
2022-09-23T21:14:43.406Z,97880.00
2022-09-23T21:17:18.834Z,97873.00
2022-09-23T21:19:53.718Z,97871.00
2022-09-23T21:22:28.699Z,97865.00
2022-09-23T21:25:26.810Z,97883.00
2022-09-23T21:28:01.766Z,97867.00
2022-09-23T21:30:36.695Z,97869.00
2022-09-23T21:33:11.617Z,97872.00
2022-09-23T21:35:46.575Z,97876.00
2022-09-23T21:38:23.049Z,97882.00
2022-09-23T21:41:05.118Z,97882.00
2022-09-23T21:43:40.492Z,97880.00
2022-09-23T21:46:21.739Z,97884.00
2022-09-23T21:48:58.693Z,97885.00
2022-09-23T21:51:42.210Z,97879.00
2022-09-23T21:54:17.384Z,97884.00
2022-09-23T21:56:52.388Z,97884.00
2022-09-23T21:59:27.697Z,97879.00
2022-09-23T22:02:02.866Z,97884.00
2022-09-23T22:04:37.809Z,97887.00
2022-09-23T22:07:12.684Z,97882.00
2022-09-23T22:09:47.877Z,97889.00
2022-09-23T22:12:24.052Z,97884.00
2022-09-23T22:14:59.115Z,97881.00
2022-09-23T22:17:34.067Z,97891.00
2022-09-23T22:20:09.532Z,97883.00
2022-09-23T22:22:44.520Z,97886.00
2022-09-23T22:25:20.384Z,97875.00
2022-09-23T22:28:14.044Z,97868.00
2022-09-23T22:31:07.308Z,97875.00
2022-09-23T22:33:42.270Z,97875.00
2022-09-23T22:36:17.497Z,97877.00
2022-09-23T22:38:59.219Z,97875.00
2022-09-23T22:41:36.421Z,97881.00
2022-09-23T22:44:11.425Z,97882.00
2022-09-23T22:46:48.707Z,97881.00
2022-09-23T22:49:23.628Z,97887.00
2022-09-23T22:52:03.973Z,97878.00
2022-09-23T22:54:38.940Z,97880.00
2022-09-23T22:57:14.617Z,97876.00
2022-09-23T22:59:49.545Z,97877.00
2022-09-23T23:02:24.426Z,97867.00
2022-09-23T23:05:00.899Z,97868.00
2022-09-23T23:07:36.217Z,97868.00
2022-09-23T23:10:11.283Z,97858.00
2022-09-23T23:12:47.406Z,97856.00
2022-09-23T23:15:22.300Z,97862.00
2022-09-23T23:17:59.223Z,97858.00
2022-09-23T23:20:35.043Z,97862.00
2022-09-23T23:23:09.933Z,97856.00
2022-09-23T23:25:44.933Z,97850.00
2022-09-23T23:28:19.778Z,97853.00
2022-09-23T23:30:54.703Z,97852.00
2022-09-23T23:33:29.626Z,97851.00
2022-09-23T23:36:06.555Z,97851.00
2022-09-23T23:38:43.493Z,97840.00
2022-09-23T23:41:22.491Z,97839.00
2022-09-23T23:44:00.014Z,97832.00
2022-09-23T23:46:36.044Z,97845.00
2022-09-23T23:49:11.078Z,97831.00
2022-09-23T23:51:46.452Z,97842.00
2022-09-23T23:54:21.620Z,97839.00
2022-09-23T23:56:56.584Z,97840.00
2022-09-23T23:59:31.470Z,97836.00
